Latest Weather Observations for Adelaide Airport

IDS60901

Issued at 5:11 am CST Thursday 30 June 2022 (issued every 10 minutes, with the page automatically refreshed every 10 minutes)

About weather observations | Map of Adelaide area stations | Latest observations for Adelaide area | Other Formats
Station Details ID: 023034 Name: ADELAIDE AIRPORT Lat: -34.95 Lon: 138.52 Height: 2.0 m
Data from the previous 72 hours. | See also: Recent months at Adelaide Airport
Date/Time
CST
Temp
°C
App
Temp
°C
Dew
Point
°C
Rel
Hum
%
Delta-T
°C
Wind Press
QNH
hPa
Press
MSL
hPa
Rain since
9am
mm
Dir  Spd
km/h
Gust
km/h
Spd
kts
Gust
kts
30/05:00am 12.9 8.3 9.7 81 1.6 SW 24 33 13 18 1020.3 1020.3 1.4
30/04:30am 12.8 7.9 9.8 82 1.5 WSW 26 33 14 18 1020.2 1020.2 1.4
30/04:00am 12.6 7.2 9.6 82 1.5 SW 28 39 15 21 1020.2 1020.2 1.4
30/03:30am 12.9 7.1 9.5 80 1.7 WSW 30 35 16 19 1020.4 1020.4 1.4
30/03:00am 12.8 8.2 9.6 81 1.6 WSW 24 33 13 18 1020.5 1020.5 1.4
30/02:30am 12.5 8.0 10.2 86 1.2 W 24 32 13 17 1020.5 1020.5 1.4
30/02:00am 12.3 7.8 10.2 87 1.1 W 24 30 13 16 1020.5 1020.5 1.2
30/01:30am 12.2 7.7 10.1 87 1.1 W 24 30 13 16 1020.4 1020.4 1.2
30/01:00am 12.0 7.0 9.7 86 1.2 W 26 32 14 17 1020.5 1020.5 1.2
30/12:30am 12.3 7.4 9.9 85 1.2 W 26 33 14 18 1020.5 1020.5 1.2
30/12:00am 12.7 9.0 9.5 81 1.6 W 19 28 10 15 1020.6 1020.6 1.2
 
Date/Time
CST
Temp
°C
App
Temp
°C
Dew
Point
°C
Rel
Hum
%
Delta-T
°C
Wind Press
QNH
hPa
Press
MSL
hPa
Rain since
9am
mm
Dir  Spd
km/h
Gust
km/h
Spd
kts
Gust
kts
29/11:30pm 12.3 8.5 9.1 81 1.6 WNW 19 24 10 13 1020.6 1020.6 1.2
29/11:00pm 12.6 9.4 9.8 83 1.4 WNW 17 20 9 11 1020.7 1020.7 1.2
29/10:30pm 12.3 9.0 9.7 84 1.3 WNW 17 20 9 11 1020.8 1020.8 1.2
29/10:00pm 12.4 9.1 9.4 82 1.5 WNW 17 22 9 12 1020.8 1020.8 1.2
29/09:30pm 12.4 9.4 9.4 82 1.5 WNW 15 17 8 9 1020.9 1020.9 1.2
29/09:00pm 12.5 9.5 9.1 80 1.7 WNW 15 20 8 11 1020.9 1020.9 1.2
29/08:30pm 12.4 9.8 9.4 82 1.5 WNW 13 19 7 10 1020.9 1020.9 1.2
29/08:00pm 12.4 9.1 9.6 83 1.4 WNW 17 24 9 13 1020.7 1020.7 1.2
29/07:30pm 12.6 9.3 9.6 82 1.5 WNW 17 24 9 13 1020.7 1020.7 1.2
29/07:00pm 12.6 9.3 9.6 82 1.5 W 17 24 9 13 1020.5 1020.5 1.2
29/06:30pm 12.5 9.2 9.5 82 1.5 W 17 20 9 11 1020.5 1020.5 1.2
29/06:00pm 12.2 10.5 9.9 86 1.2 WNW 9 11 5 6 1020.2 1020.2 1.2
29/05:30pm 11.8 9.4 9.9 88 1.0 WNW 13 17 7 9 1020.1 1020.1 1.2
29/05:00pm 11.6 8.0 10.0 90 0.8 WNW 19 28 10 15 1020.0 1020.0 1.2
29/04:44pm 11.4 7.6 9.8 90 0.8 W 20 26 11 14 1020.1 1020.1 0.8
29/04:30pm 11.5 6.9 9.8 89 0.9 WSW 24 39 13 21 1020.1 1020.1 0.8
29/04:21pm 11.9 7.5 9.1 83 1.4 W 22 39 12 21 1019.9 1019.9 0.4
29/04:00pm 13.2 10.6 10.7 85 1.3 WNW 15 20 8 11 1019.7 1019.7 0.4
29/03:30pm 14.5 12.1 11.3 81 1.7 NW 15 19 8 10 1019.7 1019.7 0.2
29/03:00pm 14.3 10.9 10.5 78 2.0 NNW 19 24 10 13 1019.8 1019.8 0.2
29/02:30pm 13.5 9.7 11.0 85 1.3 NNW 22 32 12 17 1019.7 1019.7 0.2
29/02:12pm 13.1 9.1 10.5 84 1.4 NNW 22 28 12 15 1019.8 1019.8 0.2
29/02:00pm 13.8 9.6 11.0 83 1.5 NW 24 30 13 16 1020.0 1020.0 0.2
29/01:30pm 13.0 9.0 10.4 84 1.3 NW 22 30 12 16 1020.5 1020.5 0.2
29/01:00pm 12.3 7.8 10.0 86 1.2 NW 24 33 13 18 1021.0 1021.0 0.2
29/12:30pm 12.1 8.8 9.7 85 1.2 NNW 17 24 9 13 1021.4 1021.4 0.2
29/12:17pm 12.4 8.6 9.2 81 1.6 N 19 24 10 13 1021.6 1021.6 0.2
29/12:00pm 12.0 8.4 8.3 78 1.8 NNW 17 24 9 13 1022.0 1022.0 0.2
29/11:30am 11.3 7.0 7.0 75 2.0 N 19 28 10 15 1022.6 1022.6 0.2
29/11:20am 11.5 7.0 6.2 70 2.5 N 19 28 10 15 1022.7 1022.7 0.0
29/11:00am 11.8 7.2 5.4 65 3.0 N 19 26 10 14 1022.9 1022.9 0.0
29/10:30am 11.4 6.5 5.1 65 2.9 N 20 26 11 14 1022.9 1022.9 0.0
29/10:00am 10.8 6.4 4.9 67 2.7 NNE 17 24 9 13 1022.9 1022.9 0.0
29/09:30am 10.3 5.5 4.7 68 2.5 NNE 19 24 10 13 1022.9 1022.9 0.0
29/09:00am 9.8 4.9 4.0 67 2.5 NNE 19 26 10 14 1023.0 1023.0 0.0
29/08:30am 8.8 5.0 4.0 72 2.1 NE 13 17 7 9 1022.9 1022.9 0.0
29/08:00am 7.6 3.2 2.7 71 2.0 NE 15 19 8 10 1022.8 1022.8 0.0
29/07:30am 7.0 2.9 2.5 73 1.9 NE 13 15 7 8 1022.6 1022.6 0.0
29/07:00am 7.2 2.7 2.1 70 2.1 NE 15 20 8 11 1022.7 1022.7 0.0
29/06:30am 7.2 2.3 2.1 70 2.1 NNE 17 22 9 12 1022.6 1022.6 0.0
29/06:00am 7.3 2.3 1.6 67 2.3 NE 17 20 9 11 1022.8 1022.8 0.0
29/05:30am 7.7 2.7 1.5 65 2.5 NNE 17 20 9 11 1022.4 1022.4 0.0
29/05:00am 6.9 1.9 1.2 67 2.3 NE 17 19 9 10 1022.5 1022.5 0.0
29/04:30am 6.6 2.4 1.5 70 2.0 NNE 13 17 7 9 1022.6 1022.6 0.0
29/04:00am 6.9 2.7 1.4 68 2.2 NNE 13 15 7 8 1022.7 1022.7 0.0
29/03:30am 6.7 1.7 1.4 69 2.1 NNE 17 19 9 10 1022.9 1022.9 0.0
29/03:00am 7.0 2.4 1.3 67 2.3 NNE 15 17 8 9 1023.0 1023.0 0.0
29/02:30am 7.4 2.4 1.5 66 2.4 NNE 17 20 9 11 1023.3 1023.3 0.0
29/02:00am 8.1 3.1 1.5 63 2.7 NNE 17 22 9 12 1023.5 1023.5 0.0
29/01:30am 8.0 2.6 1.4 63 2.7 NNE 19 24 10 13 1023.7 1023.7 0.0
29/01:00am 7.9 2.9 1.5 64 2.6 NE 17 19 9 10 1023.4 1023.4 0.0
29/12:30am 7.2 1.9 2.1 70 2.1 NE 19 22 10 12 1023.6 1023.6 0.0
29/12:00am 7.7 2.8 2.2 68 2.3 NE 17 20 9 11 1024.1 1024.1 0.0
 
Date/Time
CST
Temp
°C
App
Temp
°C
Dew
Point
°C
Rel
Hum
%
Delta-T
°C
Wind Press
QNH
hPa
Press
MSL
hPa
Rain since
9am
mm
Dir  Spd
km/h
Gust
km/h
Spd
kts
Gust
kts
28/11:30pm 6.5 1.6 2.0 73 1.8 NE 17 17 9 9 1024.4 1024.4 0.0
28/11:00pm 6.2 1.7 2.3 76 1.6 NE 15 19 8 10 1024.5 1024.5 0.0
28/10:30pm 6.3 2.3 2.6 77 1.5 NE 13 15 7 8 1024.5 1024.5 0.0
28/10:00pm 6.7 2.7 3.0 77 1.5 NE 13 15 7 8 1024.8 1024.8 0.0
28/09:30pm 7.9 3.7 3.8 75 1.8 NE 15 17 8 9 1025.0 1025.0 0.0
28/09:00pm 7.6 3.4 3.8 77 1.6 NE 15 17 8 9 1025.2 1025.2 0.0
28/08:30pm 8.1 4.4 4.5 78 1.6 NE 13 15 7 8 1025.4 1025.4 0.0
28/08:00pm 8.9 4.5 4.5 74 1.9 NE 17 19 9 10 1025.4 1025.4 0.0
28/07:30pm 9.2 5.6 4.8 74 1.9 NE 13 17 7 9 1025.5 1025.5 0.0
28/07:00pm 10.1 6.4 4.5 68 2.5 NE 13 15 7 8 1025.7 1025.7 0.0
28/06:30pm 11.3 7.6 4.7 64 3.0 N 13 15 7 8 1025.6 1025.6 0.0
28/06:00pm 11.8 8.1 4.5 61 3.3 N 13 15 7 8 1025.6 1025.6 0.0
28/05:30pm 13.1 9.9 5.0 58 3.7 N 11 15 6 8 1025.4 1025.4 0.0
28/05:00pm 13.7 10.1 5.1 56 4.0 NNW 13 19 7 10 1025.5 1025.5 0.0
28/04:30pm 14.5 10.9 5.0 53 4.4 NNW 13 17 7 9 1025.4 1025.4 0.0
28/04:00pm 14.8 10.5 5.1 52 4.6 NNW 17 22 9 12 1025.3 1025.3 0.0
28/03:30pm 15.3 10.5 5.5 52 4.6 NNW 20 28 11 15 1025.5 1025.5 0.0
28/03:00pm 15.2 9.4 4.3 48 5.0 NNW 24 30 13 16 1025.6 1025.6 0.0
28/02:30pm 15.4 9.7 4.8 49 4.9 N 24 30 13 16 1025.7 1025.7 0.0
28/02:00pm 15.2 9.3 4.0 47 5.2 NNW 24 30 13 16 1026.1 1026.1 0.0
28/01:30pm 15.1 10.6 4.2 48 5.0 N 17 26 9 14 1026.8 1026.8 0.0
28/01:00pm 15.0 10.4 3.8 47 5.1 N 17 24 9 13 1027.4 1027.4 0.0
28/12:30pm 14.5 8.9 3.3 47 5.0 N 22 30 12 16 1028.0 1028.0 0.0
28/12:00pm 14.0 8.3 2.9 47 4.9 N 22 28 12 15 1028.8 1028.8 0.0
28/11:30am 13.5 7.8 3.0 49 4.6 N 22 28 12 15 1029.3 1029.3 0.0
28/11:00am 13.1 7.5 3.2 51 4.4 N 22 30 12 16 1029.7 1029.7 0.0
28/10:30am 12.5 6.8 2.7 51 4.3 N 22 32 12 17 1029.9 1029.9 0.0
28/10:00am 12.1 6.4 2.6 52 4.1 NNE 22 30 12 16 1029.9 1029.9 0.0
28/09:30am 11.3 6.2 3.3 58 3.5 NNE 19 26 10 14 1029.7 1029.7 0.0
28/09:00am 10.2 5.9 3.5 63 2.9 NE 15 19 8 10 1029.8 1029.8 0.0
28/08:30am 8.7 4.8 3.3 69 2.3 NE 13 13 7 7 1029.9 1029.9 0.0
28/08:00am 7.2 2.8 2.7 73 1.9 NE 15 17 8 9 1030.0 1030.0 0.0
28/07:30am 7.1 2.7 2.6 73 1.8 NNE 15 17 8 9 1030.0 1030.0 0.0
28/07:00am 6.9 1.8 2.8 75 1.7 NE 19 20 10 11 1029.5 1029.5 0.0
28/06:30am 7.9 3.1 2.8 70 2.1 NE 17 22 9 12 1029.5 1029.5 0.0
28/06:00am 7.5 2.7 2.8 72 1.9 NE 17 19 9 10 1029.2 1029.2 0.0
28/05:30am 7.0 2.6 2.7 74 1.8 NE 15 19 8 10 1029.3 1029.3 0.0
28/05:00am 8.3 3.6 3.2 70 2.2 NE 17 22 9 12 1029.2 1029.2 0.0
28/04:30am 7.9 2.8 3.0 71 2.1 NE 19 19 10 10 1029.1 1029.1 0.0
28/04:00am 7.9 3.2 3.0 71 2.1 NNE 17 19 9 10 1029.4 1029.4 0.0
28/03:30am 7.7 3.0 3.2 73 1.9 NE 17 19 9 10 1029.5 1029.5 0.0
28/03:00am 5.7 0.9 2.5 80 1.3 NE 17 19 9 10 1030.0 1030.0 0.0
28/02:30am 6.4 2.4 2.9 78 1.4 NE 13 15 7 8 1030.5 1030.5 0.0
28/02:00am 7.9 4.0 3.4 73 1.9 NE 13 15 7 8 1030.6 1030.6 0.0
28/01:30am 8.0 3.8 3.7 74 1.8 NE 15 17 8 9 1030.6 1030.6 0.0
28/01:00am 8.5 4.3 3.8 72 2.0 NE 15 17 8 9 1030.9 1030.9 0.0
28/12:30am 8.3 4.1 3.8 73 1.9 NE 15 19 8 10 1031.1 1031.1 0.0
28/12:00am 8.2 3.7 4.0 75 1.8 NE 17 19 9 10 1031.5 1031.5 0.0
 
Date/Time
CST
Temp
°C
App
Temp
°C
Dew
Point
°C
Rel
Hum
%
Delta-T
°C
Wind Press
QNH
hPa
Press
MSL
hPa
Rain since
9am
mm
Dir  Spd
km/h
Gust
km/h
Spd
kts
Gust
kts
27/11:30pm 8.2 3.7 4.4 77 1.6 NE 17 17 9 9 1031.7 1031.7 0.0
27/11:00pm 7.0 3.2 4.0 81 1.3 NE 13 17 7 9 1032.1 1032.1 0.0
27/10:30pm 8.3 4.6 4.5 77 1.7 NE 13 15 7 8 1032.5 1032.5 0.0
27/10:00pm 8.0 4.4 4.9 81 1.4 NE 13 15 7 8 1032.5 1032.5 0.0
27/09:30pm 6.9 4.1 5.2 89 0.7 NE 9 9 5 5 1032.7 1032.7 0.0
27/09:00pm 6.9 4.5 5.1 88 0.8 E 7 7 4 4 1032.9 1032.9 0.0
27/08:30pm 7.9 5.8 5.9 87 0.9 E 6 7 3 4 1033.1 1033.1 0.0
27/08:00pm 8.2 5.9 5.8 85 1.1 E 7 7 4 4 1033.1 1033.1 0.0
27/07:30pm 8.6 5.6 5.9 83 1.2 E 11 11 6 6 1033.1 1033.1 0.0
27/07:00pm 8.3 6.0 5.8 84 1.1 S 7 9 4 5 1033.1 1033.1 0.0
27/06:30pm 9.2 6.9 5.9 80 1.5 S 7 9 4 5 1033.3 1033.3 0.0
27/06:00pm 9.8 7.6 6.0 77 1.7 SSW 7 7 4 4 1033.0 1033.0 0.0
27/05:30pm 10.2 7.5 5.8 74 2.0 SSW 9 11 5 6 1032.8 1032.8 0.0
27/05:00pm 11.4 8.7 5.7 68 2.6 SW 9 9 5 5 1032.7 1032.7 0.0
27/04:30pm 12.3 9.7 5.9 65 3.0 WSW 9 11 5 6 1033.0 1033.0 0.0
27/04:00pm 12.6 9.9 5.5 62 3.3 WSW 9 13 5 7 1032.9 1032.9 0.0
27/03:30pm 12.8 9.4 5.9 63 3.2 W 13 15 7 8 1033.0 1033.0 0.0
27/03:00pm 13.5 10.0 7.1 65 3.1 W 15 19 8 10 1033.3 1033.3 0.0
27/02:30pm 13.2 9.1 6.3 63 3.3 W 17 19 9 10 1033.5 1033.5 0.0
27/02:00pm 13.3 9.7 6.9 65 3.1 W 15 19 8 10 1033.7 1033.7 0.0
27/01:30pm 13.1 9.9 6.7 65 3.0 W 13 17 7 9 1034.2 1034.2 0.0
27/01:00pm 13.5 11.1 6.8 64 3.2 NNE 9 13 5 7 1034.8 1034.8 0.0
27/12:30pm 13.4 10.6 5.1 57 3.8 NNW 9 15 5 8 1035.2 1035.2 0.0
27/12:00pm 13.4 10.6 5.1 57 3.8 NNW 9 13 5 7 1035.6 1035.6 0.0
27/11:30am 13.0 10.8 5.2 59 3.6 NNW 6 17 3 9 1036.1 1036.1 0.0
27/11:00am 12.8 10.1 5.5 61 3.4 N 9 13 5 7 1036.3 1036.3 0.0
27/10:30am 12.3 9.6 5.5 63 3.1 NNE 9 13 5 7 1036.4 1036.4 0.0
27/10:00am 12.1 9.7 7.2 72 2.4 NNE 9 13 5 7 1036.4 1036.4 0.0
27/09:30am 10.4 9.7 6.9 79 1.6 CALM 0 0 0 0 1036.1 1036.1 0.0
27/09:00am 9.0 7.0 6.3 83 1.2 E 6 7 3 4 1035.9 1035.9 0.0
27/08:30am 7.7 5.4 5.7 87 0.9 NE 7 7 4 4 1035.4 1035.4 0.0
27/08:00am 6.0 3.2 5.0 93 0.4 NNE 9 11 5 6 1035.0 1035.0 0.0
27/07:30am 5.1 2.5 4.2 94 0.4 NE 7 9 4 5 1034.7 1034.7 0.0
27/07:00am 5.2 2.7 4.5 95 0.3 ENE 7 9 4 5 1034.5 1034.5 0.0
27/06:30am 4.9 3.6 4.3 96 0.3 CALM 0 0 0 0 1034.5 1034.5 0.0
27/06:00am 4.2 1.5 3.5 95 0.3 ENE 7 9 4 5 1034.5 1034.5 0.0
27/05:30am 4.1 1.5 3.4 95 0.3 ENE 6 9 3 5 1034.2 1034.2 0.0

Latest Capital City Observations: Canberra | Sydney | Melbourne | Brisbane | Adelaide | Perth | Hobart | Darwin

Other formats

Comma delimited format used in spreadsheet applications
http://www.bom.gov.au/fwo/IDS60901/IDS60901.94672.axf

JavaScript Object Notation format (JSON) in row-major order
http://www.bom.gov.au/fwo/IDS60901/IDS60901.94672.json

Data quality

Most of these data are generated automatically and are frequently updated. Quality checks on data are not normally performed. It is possible for incorrect values to appear. Refer to information at About Latest Weather Observations and please check the disclaimer before using these data.